Huntsville, TX (77320)

7:47 AM CST on January 18, 2018 (GMT -0600)
SpingCircleLoop-HunTX | | Change Station
Active Advisory: Hard Freeze Warning

Elev 291 ft 30.79 °N, 95.69 °W | Updated 28 seconds ago

Mostly Cloudy
Mostly Cloudy
16.2 °F
Feels Like 16 °F
N
0.0
Wind Variable Wind from NE
Gusts 0.0 mph

Today
High -- | Low -- °F
--% Chance of Precip.
Yesterday
High -- | Low -- °F
Precip. -- in
Pressure 30.57 in
Visibility 10.0 miles
Clouds Clear
Windchill 16 °F
Dew Point 14 °F
Humidity 91%
Rainfall 0.00 in
Snow Depth Not available.
7:20 AM 5:45 PM
New Moon, 2% visible
METAR KUTS 181253Z AUTO 00000KT 10SM CLR M08/M11 A3056 RMK AO2 SLP352 I1000 T10831106
Pressure 30.57 in
Visibility 10.0 miles
Clouds Clear
Windchill 16 °F
Dew Point 14 °F
Humidity 91%
Rainfall 0.00 in
Snow Depth Not available.
7:20 AM 5:45 PM
New Moon, 2% visible
METAR KUTS 181253Z AUTO 00000KT 10SM CLR M08/M11 A3056 RMK AO2 SLP352 I1000 T10831106

Get Your Daily Forecast Email!

Thanks for signing up!

Be on the lookout for a verification email in your inbox.

You'll start receiving severe weather alerts in your inbox..

×

10-Day Weather Forecast

Almanac

Astronomy

Jan. 18, 2018 Rise Set
Actual Time
Civil Twilight
Nautical Twilight
Astronomical Twilight
Moon
Length of Visible Light
Length of Day
Tomorrow will be .
, % of the Moon is Illuminated

Today's Extremes

State Highs State Lows

Community

WunderPhotos

Category 6

Welcome to Category 6. This is the collective home for Weather Underground's featured writeups by Dr. Jeff Masters (right), Bob Henson (left), Chris Burt, and other regular contributors.

Nearby

Air Quality

  Air Quality AQ Index Pollutant
Not available.

Snow Depth

Station Depth Elevation

Earthquake Activity

City Distance Mag. Time & Date
Minimum magnitude displayed is 2.5.

Coastal Water Temperatures

Place Temperature

Stations

Nearby Weather Stations

Station Location Temp. Windchill Dew Point Humidity Wind Precip. Elev Updated Type
                   

Watches & Warnings

Hard Freeze Warning
Issued: 3:34 AM CST Jan. 18, 2018 – National Weather Service

... Hard freeze warning remains in effect until 9 am CST this morning...

* event... hard freeze with temperatures ranging from 15 to 25
degrees.

* Timing... below freezing through mid morning.

* Impact... potential hypothermia for people and pets. Possible
damage to unprotected pipes and tropical vegetation.

Precautionary/preparedness actions...

A hard freeze warning means sub-freezing temperatures are imminent
or highly likely. These conditions will kill crops and other
sensitive vegetation.